createdAt,value
2022-12-18T00:01:24.412Z,100957.38
2022-12-18T00:03:53.119Z,100965.72
2022-12-18T00:06:21.248Z,100963.13
2022-12-18T00:08:48.934Z,100976.59
2022-12-18T00:11:18.993Z,100974.59
2022-12-18T00:13:46.942Z,100987.66
2022-12-18T00:16:16.996Z,100986.06
2022-12-18T00:18:44.794Z,100993.19
2022-12-18T00:21:13.798Z,101002.69
2022-12-18T00:23:43.218Z,101007.03
2022-12-18T00:26:16.711Z,101017.53
2022-12-18T00:28:44.713Z,101024.84
2022-12-18T00:31:14.612Z,101026.22
2022-12-18T00:33:42.293Z,101030.38
2022-12-18T00:36:15.808Z,101033.94
2022-12-18T00:38:43.683Z,101033.94
2022-12-18T00:41:12.811Z,101038.09
2022-12-18T00:43:41.369Z,101034.94
2022-12-18T00:46:09.028Z,101041.06
2022-12-18T00:48:37.008Z,101039.88
2022-12-18T00:51:04.848Z,101041.44
2022-12-18T00:53:32.400Z,101041.06
2022-12-18T00:55:59.966Z,101047.97
2022-12-18T00:58:27.059Z,101048.38
2022-12-18T01:00:54.866Z,101050.34
2022-12-18T01:03:22.115Z,101060.41
2022-12-18T01:05:49.461Z,101053.31
2022-12-18T01:08:16.974Z,101061.41
2022-12-18T01:10:44.577Z,101069.47
2022-12-18T01:13:12.834Z,101067.34
2022-12-18T01:15:40.230Z,101077.41
2022-12-18T01:18:08.417Z,101067.13
2022-12-18T01:20:35.838Z,101070.69
2022-12-18T01:23:02.983Z,101062.38
2022-12-18T01:25:30.843Z,101071.69
2022-12-18T01:27:58.291Z,101075.81
2022-12-18T01:30:26.759Z,101072.28
2022-12-18T01:32:54.135Z,101073.06
2022-12-18T01:35:21.734Z,101080.97
2022-12-18T01:37:49.290Z,101080.97
2022-12-18T01:40:16.994Z,101080.97
2022-12-18T01:42:44.854Z,101082.16
2022-12-18T01:45:15.444Z,101088.66
2022-12-18T01:47:49.858Z,101090.66
2022-12-18T01:50:17.704Z,101093.00
2022-12-18T01:52:47.773Z,101094.78
2022-12-18T01:55:18.028Z,101095.97
2022-12-18T01:57:46.444Z,101104.66
2022-12-18T02:00:19.933Z,101105.84
2022-12-18T02:02:48.207Z,101103.47
2022-12-18T02:05:18.782Z,101108.59
2022-12-18T02:07:58.009Z,101113.91
2022-12-18T02:10:51.875Z,101120.81
2022-12-18T02:13:26.877Z,101121.03
2022-12-18T02:16:18.987Z,101123.97
2022-12-18T02:18:50.797Z,101129.88
2022-12-18T02:21:27.727Z,101126.31
2022-12-18T02:23:58.885Z,101128.28
2022-12-18T02:26:35.886Z,101131.47
2022-12-18T02:29:10.024Z,101134.03
2022-12-18T02:31:43.891Z,101138.19
2022-12-18T02:34:12.846Z,101139.75
2022-12-18T02:36:42.650Z,101151.84
2022-12-18T02:39:12.895Z,101144.53
2022-12-18T02:41:41.059Z,101141.97
2022-12-18T02:44:12.482Z,101148.50
2022-12-18T02:46:46.479Z,101140.16
2022-12-18T02:49:13.903Z,101146.47
2022-12-18T02:52:02.450Z,101153.59
2022-12-18T02:54:38.903Z,101159.09
2022-12-18T02:57:33.486Z,101153.97
2022-12-18T03:00:12.754Z,101155.16
2022-12-18T03:03:08.922Z,101161.47
2022-12-18T03:05:45.045Z,101169.53
2022-12-18T03:08:18.663Z,101168.94
2022-12-18T03:11:13.075Z,101172.47
2022-12-18T03:13:49.491Z,101178.78
2022-12-18T03:16:20.068Z,101179.19
2022-12-18T03:18:56.893Z,101187.69
2022-12-18T03:21:33.915Z,101187.06
2022-12-18T03:24:02.377Z,101191.41
2022-12-18T03:26:30.919Z,101193.38
2022-12-18T03:29:01.932Z,101193.72
2022-12-18T03:31:30.865Z,101200.66
2022-12-18T03:34:10.935Z,101200.03
2022-12-18T03:36:38.509Z,101206.34
2022-12-18T03:39:06.055Z,101210.06
2022-12-18T03:41:48.925Z,101217.59
2022-12-18T03:44:22.929Z,101223.91
2022-12-18T03:47:15.071Z,101227.63
2022-12-18T03:50:09.587Z,101225.44
2022-12-18T03:52:52.281Z,101221.09
2022-12-18T03:55:21.077Z,101223.66
2022-12-18T03:57:50.177Z,101221.91
2022-12-18T04:00:18.957Z,101225.44
2022-12-18T04:02:51.084Z,101229.22
2022-12-18T04:05:20.083Z,101231.00
2022-12-18T04:07:49.805Z,101233.19
2022-12-18T04:10:18.085Z,101238.69
2022-12-18T04:12:45.963Z,101229.59
2022-12-18T04:15:14.090Z,101238.09
2022-12-18T04:17:50.968Z,101237.47
2022-12-18T04:20:18.995Z,101237.06
2022-12-18T04:22:46.972Z,101250.88
2022-12-18T04:25:15.540Z,101239.03
2022-12-18T04:27:43.099Z,101250.09
2022-12-18T04:30:11.817Z,101245.72
2022-12-18T04:32:39.547Z,101248.13
2022-12-18T04:35:11.817Z,101251.66
2022-12-18T04:37:39.104Z,101244.97
2022-12-18T04:40:07.555Z,101253.63
2022-12-18T04:42:35.152Z,101265.50
2022-12-18T04:45:03.113Z,101265.50
2022-12-18T04:47:30.987Z,101270.63
2022-12-18T04:49:58.483Z,101273.38
2022-12-18T04:52:26.107Z,101280.22
2022-12-18T04:54:53.987Z,101275.88
2022-12-18T04:57:21.994Z,101280.03
2022-12-18T04:59:49.268Z,101280.03
2022-12-18T05:02:17.110Z,101280.66
2022-12-18T05:04:45.000Z,101279.69
2022-12-18T05:07:12.570Z,101290.78
2022-12-18T05:09:40.122Z,101285.66
2022-12-18T05:12:08.125Z,101292.97
2022-12-18T05:14:35.527Z,101294.16
2022-12-18T05:17:03.900Z,101294.34
2022-12-18T05:19:31.128Z,101299.09
2022-12-18T05:21:58.971Z,101304.59
2022-12-18T05:24:26.972Z,101303.00
2022-12-18T05:26:54.866Z,101304.00
2022-12-18T05:29:22.863Z,101309.47
2022-12-18T05:31:50.091Z,101309.31
2022-12-18T05:34:18.063Z,101309.06
2022-12-18T05:36:45.745Z,101314.72
2022-12-18T05:39:13.167Z,101309.38
2022-12-18T05:41:41.144Z,101307.16
2022-12-18T05:44:09.068Z,101307.16
2022-12-18T05:46:37.803Z,101310.72
2022-12-18T05:49:05.165Z,101319.00
2022-12-18T05:51:33.072Z,101319.25
2022-12-18T05:54:00.947Z,101323.34
2022-12-18T05:56:28.157Z,101325.00
2022-12-18T05:58:56.469Z,101331.34
2022-12-18T06:01:28.062Z,101336.31
2022-12-18T06:03:56.626Z,101341.03
2022-12-18T06:06:26.896Z,101342.00
2022-12-18T06:08:54.992Z,101348.72
2022-12-18T06:11:24.891Z,101352.25
2022-12-18T06:13:58.161Z,101352.25
2022-12-18T06:16:30.207Z,101347.13
2022-12-18T06:19:02.897Z,101352.19
2022-12-18T06:21:31.620Z,101363.25
2022-12-18T06:24:00.046Z,101355.31
2022-12-18T06:26:28.699Z,101366.38
2022-12-18T06:28:56.928Z,101360.06
2022-12-18T06:31:25.544Z,101376.09
2022-12-18T06:33:53.174Z,101377.50
2022-12-18T06:36:22.178Z,101381.84
2022-12-18T06:38:49.206Z,101388.38
2022-12-18T06:41:21.717Z,101382.25
2022-12-18T06:43:49.181Z,101387.59
2022-12-18T06:46:16.395Z,101396.25
2022-12-18T06:48:44.210Z,101390.50
2022-12-18T06:51:12.184Z,101392.09
2022-12-18T06:53:40.452Z,101399.44
2022-12-18T06:56:10.623Z,101398.09
2022-12-18T06:58:39.014Z,101406.69
2022-12-18T07:01:09.115Z,101404.97
2022-12-18T07:03:37.470Z,101410.00
2022-12-18T07:06:05.120Z,101403.53
2022-12-18T07:08:33.193Z,101417.09
2022-12-18T07:11:04.194Z,101432.28
2022-12-18T07:13:31.939Z,101432.19
2022-12-18T07:16:22.357Z,101434.09
2022-12-18T07:18:52.198Z,101440.91
2022-12-18T07:21:20.947Z,101435.50
2022-12-18T07:23:49.447Z,101442.94
2022-12-18T07:26:19.224Z,101444.81
2022-12-18T07:28:47.017Z,101452.03
2022-12-18T07:31:20.302Z,101451.16
2022-12-18T07:33:49.090Z,101458.59
2022-12-18T07:36:16.790Z,101460.28
2022-12-18T07:38:44.245Z,101463.28
2022-12-18T07:41:13.885Z,101466.47
2022-12-18T07:43:42.625Z,101473.75
2022-12-18T07:46:11.018Z,101470.84
2022-12-18T07:48:45.219Z,101483.00
2022-12-18T07:51:18.114Z,101481.13
2022-12-18T07:53:46.216Z,101497.56
2022-12-18T07:56:31.552Z,101505.19
2022-12-18T07:59:00.279Z,101509.81
2022-12-18T08:01:28.884Z,101507.38
2022-12-18T08:03:56.943Z,101517.56
2022-12-18T08:06:24.844Z,101507.56
2022-12-18T08:08:55.992Z,101510.59
2022-12-18T08:11:25.105Z,101514.44
2022-12-18T08:13:53.226Z,101514.00
2022-12-18T08:16:21.279Z,101522.09
2022-12-18T08:18:49.590Z,101513.50
2022-12-18T08:21:24.167Z,101519.19
2022-12-18T08:23:52.892Z,101524.13
2022-12-18T08:26:21.088Z,101534.22
2022-12-18T08:28:49.911Z,101530.72
2022-12-18T08:31:19.385Z,101538.50
2022-12-18T08:33:47.259Z,101534.56
2022-12-18T08:36:14.710Z,101547.31
2022-12-18T08:38:42.389Z,101550.19
2022-12-18T08:41:12.246Z,101547.81
2022-12-18T08:43:58.624Z,101546.22
2022-12-18T08:46:28.315Z,101551.06
2022-12-18T08:48:57.158Z,101552.03
2022-12-18T08:51:24.491Z,101558.28
2022-12-18T08:53:52.243Z,101560.44
2022-12-18T08:56:20.245Z,101553.41
2022-12-18T08:58:48.251Z,101553.06
2022-12-18T09:01:16.302Z,101557.69
2022-12-18T09:03:44.115Z,101563.59
2022-12-18T09:06:16.019Z,101550.06
2022-12-18T09:08:45.180Z,101560.03
2022-12-18T09:11:24.272Z,101567.31
2022-12-18T09:13:52.253Z,101568.13
2022-12-18T09:16:21.150Z,101577.38
2022-12-18T09:18:49.028Z,101573.53
2022-12-18T09:21:21.174Z,101578.22
2022-12-18T09:23:52.280Z,101568.81
2022-12-18T09:26:20.282Z,101579.69
2022-12-18T09:28:47.844Z,101580.38
2022-12-18T09:31:15.359Z,101578.84
2022-12-18T09:33:43.183Z,101577.28
2022-12-18T09:36:11.429Z,101579.16
2022-12-18T09:38:39.438Z,101575.25
2022-12-18T09:41:17.290Z,101578.44
2022-12-18T09:43:49.019Z,101574.75
2022-12-18T09:46:22.238Z,101580.50
2022-12-18T09:48:51.758Z,101572.94
2022-12-18T09:51:31.296Z,101572.94
2022-12-18T09:54:03.192Z,101575.28
2022-12-18T09:56:33.522Z,101576.09
2022-12-18T09:59:02.301Z,101568.97
2022-12-18T10:01:41.538Z,101567.41
2022-12-18T10:04:11.590Z,101569.75
2022-12-18T10:06:48.061Z,101570.28
2022-12-18T10:09:39.050Z,101570.97
2022-12-18T10:12:14.310Z,101569.78
2022-12-18T10:14:44.206Z,101577.06
2022-12-18T10:17:41.133Z,101573.78
2022-12-18T10:20:23.854Z,101582.75
2022-12-18T10:22:58.315Z,101581.97
2022-12-18T10:25:30.750Z,101573.81
2022-12-18T10:28:01.784Z,101569.25
2022-12-18T10:30:29.310Z,101562.19
2022-12-18T10:33:02.789Z,101564.69
2022-12-18T10:35:30.029Z,101568.94
2022-12-18T10:38:02.332Z,101572.38
2022-12-18T10:40:30.332Z,101579.97
2022-12-18T10:43:13.308Z,101568.19
2022-12-18T10:45:42.229Z,101571.97
2022-12-18T10:48:22.335Z,101576.00
2022-12-18T10:53:39.335Z,101571.94
2022-12-18T10:56:08.344Z,101570.31
2022-12-18T10:58:38.235Z,101566.44
2022-12-18T11:01:17.786Z,101565.75
2022-12-18T11:03:51.329Z,101560.47
2022-12-18T11:06:23.243Z,101559.25
2022-12-18T11:09:19.344Z,101556.53
2022-12-18T11:11:55.346Z,101551.97
2022-12-18T11:14:33.150Z,101558.03
2022-12-18T11:19:58.794Z,101551.00
2022-12-18T11:22:37.245Z,101543.03
2022-12-18T11:25:36.040Z,101550.56
2022-12-18T11:28:33.278Z,101554.22
2022-12-18T11:31:23.600Z,101558.31
2022-12-18T11:36:49.777Z,101551.66
2022-12-18T11:39:33.252Z,101546.97
2022-12-18T11:42:12.260Z,101549.22
2022-12-18T11:44:52.273Z,101540.91
2022-12-18T11:47:38.368Z,101544.03
2022-12-18T11:50:15.393Z,101534.81
2022-12-18T11:52:43.477Z,101542.44
2022-12-18T11:55:17.373Z,101540.28
2022-12-18T11:58:03.377Z,101540.22
2022-12-18T12:00:31.376Z,101538.63
2022-12-18T12:03:02.034Z,101536.81
2022-12-18T12:06:00.272Z,101530.91
2022-12-18T12:08:53.278Z,101527.97
2022-12-18T12:11:36.214Z,101528.75
2022-12-18T12:14:06.383Z,101526.53
2022-12-18T12:16:55.159Z,101524.75
2022-12-18T12:19:35.178Z,101520.00
2022-12-18T12:22:18.013Z,101533.78
2022-12-18T12:24:48.285Z,101529.81
2022-12-18T12:27:28.403Z,101524.88
2022-12-18T12:30:04.167Z,101534.28
2022-12-18T12:32:43.873Z,101533.84
2022-12-18T12:35:38.398Z,101530.63
2022-12-18T12:38:20.400Z,101525.59
2022-12-18T12:41:03.088Z,101521.63
2022-12-18T12:43:34.174Z,101521.91
2022-12-18T12:46:09.428Z,101528.91
2022-12-18T12:48:40.115Z,101542.44
2022-12-18T12:51:13.339Z,101547.34
2022-12-18T12:53:42.776Z,101553.81
2022-12-18T12:56:13.410Z,101556.31
2022-12-18T12:59:03.074Z,101557.00
2022-12-18T13:01:53.881Z,101552.06
2022-12-18T13:04:38.311Z,101555.25
2022-12-18T13:07:18.240Z,101561.03
2022-12-18T13:10:21.187Z,101569.22
2022-12-18T13:13:07.261Z,101565.31
2022-12-18T13:15:47.012Z,101565.81
2022-12-18T13:18:23.521Z,101562.69
2022-12-18T13:20:58.334Z,101565.06
2022-12-18T13:23:35.199Z,101577.88
2022-12-18T13:26:12.188Z,101574.16
2022-12-18T13:28:49.198Z,101575.16
2022-12-18T13:31:43.535Z,101573.88
2022-12-18T13:34:26.314Z,101581.44
2022-12-18T13:36:57.201Z,101576.16
2022-12-18T13:39:30.314Z,101585.59
2022-12-18T13:42:07.919Z,101579.53
2022-12-18T13:44:41.616Z,101580.94
2022-12-18T13:47:39.230Z,101584.22
2022-12-18T13:50:29.731Z,101582.22
2022-12-18T13:52:59.925Z,101587.06
2022-12-18T13:55:27.447Z,101590.00
2022-12-18T13:58:06.291Z,101589.22
2022-12-18T14:00:34.391Z,101584.91
2022-12-18T14:03:02.628Z,101590.53
2022-12-18T14:05:36.394Z,101585.94
2022-12-18T14:08:09.488Z,101585.06
2022-12-18T14:10:48.699Z,101592.44
2022-12-18T14:13:24.439Z,101584.84
2022-12-18T14:15:52.493Z,101588.94
2022-12-18T14:18:23.483Z,101582.81
2022-12-18T14:20:54.568Z,101579.53
2022-12-18T14:23:34.498Z,101586.59
2022-12-18T14:26:06.194Z,101594.16
2022-12-18T14:28:33.880Z,101599.31
2022-12-18T14:31:01.608Z,101604.31
2022-12-18T14:33:29.504Z,101605.94
2022-12-18T14:36:02.473Z,101605.72
2022-12-18T14:38:36.321Z,101611.28
2022-12-18T14:41:07.418Z,101613.44
2022-12-18T14:43:37.029Z,101614.00
2022-12-18T14:46:26.153Z,101611.97
2022-12-18T14:48:54.422Z,101622.28
2022-12-18T14:51:27.518Z,101627.00
2022-12-18T14:54:04.971Z,101629.09
2022-12-18T14:56:37.380Z,101628.38
2022-12-18T14:59:23.813Z,101625.09
2022-12-18T15:02:24.687Z,101631.53
2022-12-18T15:05:17.442Z,101640.34
2022-12-18T15:07:47.341Z,101638.03
2022-12-18T15:10:29.436Z,101641.66
2022-12-18T15:12:57.254Z,101647.44
2022-12-18T15:15:40.475Z,101658.00
2022-12-18T15:18:14.421Z,101661.22
2022-12-18T15:20:56.452Z,101655.84
2022-12-18T15:23:36.439Z,101653.88
2022-12-18T15:26:05.537Z,101665.22
2022-12-18T15:28:44.991Z,101659.06
2022-12-18T15:31:17.027Z,101664.41
2022-12-18T15:33:51.460Z,101668.00
2022-12-18T15:36:21.427Z,101673.97
2022-12-18T15:38:56.067Z,101679.09
2022-12-18T15:41:29.449Z,101681.66
2022-12-18T15:43:57.471Z,101684.25
2022-12-18T15:46:26.498Z,101685.81
2022-12-18T15:49:01.471Z,101699.09
2022-12-18T15:51:32.451Z,101704.25
2022-12-18T15:54:01.475Z,101700.84
2022-12-18T15:56:48.054Z,101706.41
2022-12-18T15:59:17.944Z,101701.22
2022-12-18T16:01:48.588Z,101708.56
2022-12-18T16:04:17.839Z,101710.09
2022-12-18T16:07:13.239Z,101713.88
2022-12-18T16:09:32.675Z,101714.66
2022-12-18T16:12:00.493Z,101717.81
2022-12-18T16:14:30.427Z,101721.38
2022-12-18T16:17:06.433Z,101728.88
2022-12-18T16:19:34.393Z,101728.84
2022-12-18T16:22:02.997Z,101736.19
2022-12-18T16:24:32.499Z,101735.94
2022-12-18T16:27:01.502Z,101733.34
2022-12-18T16:29:30.501Z,101735.50
2022-12-18T16:31:59.542Z,101737.59
2022-12-18T16:34:35.480Z,101742.72
2022-12-18T16:37:06.326Z,101737.53
2022-12-18T16:39:38.232Z,101736.47
2022-12-18T16:42:13.754Z,101742.00
2022-12-18T16:44:41.519Z,101744.19
2022-12-18T16:47:09.670Z,101749.47
2022-12-18T16:49:39.519Z,101749.03
2022-12-18T16:52:08.382Z,101750.56
2022-12-18T16:54:36.975Z,101748.38
2022-12-18T16:57:08.383Z,101749.34
2022-12-18T16:59:35.618Z,101750.09
2022-12-18T17:02:07.765Z,101741.50
2022-12-18T17:04:35.527Z,101731.97
2022-12-18T17:07:05.058Z,101729.63
2022-12-18T17:09:32.681Z,101737.50
2022-12-18T17:12:04.179Z,101732.13
2022-12-18T17:14:32.606Z,101731.69
2022-12-18T17:17:20.318Z,101736.22
2022-12-18T17:19:48.435Z,101740.75
2022-12-18T17:22:15.609Z,101738.91
2022-12-18T17:24:43.440Z,101734.75
2022-12-18T17:27:11.308Z,101737.44
2022-12-18T17:29:43.887Z,101740.63
2022-12-18T17:32:14.617Z,101735.06
2022-12-18T17:34:42.449Z,101745.72
2022-12-18T17:37:10.237Z,101745.09
2022-12-18T17:39:37.802Z,101746.06
2022-12-18T17:42:05.556Z,101751.94
2022-12-18T17:44:34.558Z,101748.94
2022-12-18T17:47:02.720Z,101752.50
2022-12-18T17:49:31.316Z,101753.47
2022-12-18T17:51:58.631Z,101749.06
2022-12-18T17:54:26.565Z,101747.09
2022-12-18T17:56:54.069Z,101749.06
2022-12-18T17:59:21.634Z,101738.88
2022-12-18T18:01:49.650Z,101746.94
2022-12-18T18:04:17.657Z,101736.66
2022-12-18T18:06:45.578Z,101745.78
2022-12-18T18:09:16.999Z,101743.38
2022-12-18T18:12:05.420Z,101748.88
2022-12-18T18:14:33.643Z,101746.69
2022-12-18T18:17:04.636Z,101748.00
2022-12-18T18:19:33.661Z,101745.59
2022-12-18T18:22:01.777Z,101741.56
2022-12-18T18:24:31.096Z,101741.72
2022-12-18T18:27:01.589Z,101742.69
2022-12-18T18:29:32.593Z,101748.19
2022-12-18T18:32:00.623Z,101762.38
2022-12-18T18:34:30.530Z,101764.34
2022-12-18T18:36:57.745Z,101763.72
2022-12-18T18:39:25.698Z,101762.31
2022-12-18T18:41:53.581Z,101761.88
2022-12-18T18:44:26.141Z,101773.81
2022-12-18T18:46:57.668Z,101776.38
2022-12-18T18:49:28.021Z,101769.66
2022-12-18T18:51:56.788Z,101785.88
2022-12-18T18:54:25.620Z,101786.41
2022-12-18T18:57:19.498Z,101786.13
2022-12-18T18:59:41.543Z,101782.94
2022-12-18T19:02:13.778Z,101786.47
2022-12-18T19:04:45.854Z,101782.22
2022-12-18T19:07:28.119Z,101792.66
2022-12-18T19:10:04.247Z,101797.34
2022-12-18T19:12:52.350Z,101793.00
2022-12-18T19:15:20.350Z,101793.38
2022-12-18T19:17:48.098Z,101803.66
2022-12-18T19:20:16.629Z,101803.66
2022-12-18T19:22:55.040Z,101800.72
2022-12-18T19:25:28.359Z,101812.16
2022-12-18T19:28:08.271Z,101812.66
2022-12-18T19:30:46.129Z,101819.75
2022-12-18T19:33:41.585Z,101812.53
2022-12-18T19:36:01.928Z,101807.94
2022-12-18T19:38:31.696Z,101821.25
2022-12-18T19:41:00.485Z,101818.84
2022-12-18T19:43:28.488Z,101824.31
2022-12-18T19:45:57.528Z,101821.91
2022-12-18T19:48:24.786Z,101830.94
2022-12-18T19:50:52.495Z,101832.88
2022-12-18T19:53:20.383Z,101836.88
2022-12-18T19:55:48.101Z,101836.88
2022-12-18T19:58:17.035Z,101828.56
2022-12-18T20:00:44.350Z,101833.25
2022-12-18T20:03:23.319Z,101832.44
2022-12-18T20:05:54.802Z,101831.97
2022-12-18T20:08:21.849Z,101833.09
2022-12-18T20:10:49.290Z,101836.97
2022-12-18T20:13:17.148Z,101839.03
2022-12-18T20:15:45.444Z,101835.50
2022-12-18T20:18:13.512Z,101843.38
2022-12-18T20:20:40.802Z,101856.56
2022-12-18T20:23:08.671Z,101860.78
2022-12-18T20:25:36.518Z,101858.38
2022-12-18T20:28:04.521Z,101863.16
2022-12-18T20:30:32.531Z,101851.63
2022-12-18T20:33:00.381Z,101863.16
2022-12-18T20:35:29.160Z,101866.53
2022-12-18T20:37:57.527Z,101870.19
2022-12-18T20:40:26.485Z,101867.78
2022-12-18T20:42:54.531Z,101863.00
2022-12-18T20:45:22.688Z,101855.00
2022-12-18T20:47:50.387Z,101873.63
2022-12-18T20:50:18.167Z,101868.63
2022-12-18T20:52:46.170Z,101872.97
2022-12-18T20:55:14.170Z,101869.44
2022-12-18T20:57:41.807Z,101868.47
2022-12-18T21:00:11.305Z,101873.28
2022-12-18T21:02:39.826Z,101880.63
2022-12-18T21:05:07.955Z,101881.63
2022-12-18T21:07:35.705Z,101886.75
2022-12-18T21:10:04.550Z,101889.31
2022-12-18T21:12:40.550Z,101888.22
2022-12-18T21:15:17.009Z,101881.13
2022-12-18T21:17:45.391Z,101887.06
2022-12-18T21:20:17.403Z,101886.25
2022-12-18T21:22:45.561Z,101891.25
2022-12-18T21:25:13.401Z,101886.75
2022-12-18T21:27:41.184Z,101877.72
2022-12-18T21:30:09.186Z,101873.22
2022-12-18T21:32:37.187Z,101883.50
2022-12-18T21:35:05.568Z,101875.00
2022-12-18T21:37:33.571Z,101871.00
2022-12-18T21:40:01.407Z,101868.78
2022-12-18T21:42:47.378Z,101871.66
2022-12-18T21:45:15.409Z,101856.44
2022-12-18T21:47:42.869Z,101862.50
2022-12-18T21:50:10.412Z,101869.84
2022-12-18T21:52:37.965Z,101875.50
2022-12-18T21:55:09.547Z,101860.72
2022-12-18T21:57:38.934Z,101862.00
2022-12-18T22:00:07.941Z,101855.59
2022-12-18T22:02:35.783Z,101863.91
2022-12-18T22:05:03.744Z,101865.88
2022-12-18T22:07:32.019Z,101869.41
2022-12-18T22:09:59.748Z,101864.59
2022-12-18T22:12:43.125Z,101869.75
2022-12-18T22:15:13.202Z,101864.47
2022-12-18T22:17:49.422Z,101870.41
2022-12-18T22:20:17.641Z,101863.69
2022-12-18T22:22:48.429Z,101869.13
2022-12-18T22:25:16.426Z,101876.22
2022-12-18T22:28:04.402Z,101870.13
2022-12-18T22:30:32.214Z,101875.41
2022-12-18T22:33:00.411Z,101871.44
2022-12-18T22:35:28.429Z,101871.94
2022-12-18T22:37:56.136Z,101885.88
2022-12-18T22:40:25.800Z,101881.09
2022-12-18T22:42:54.772Z,101884.63
2022-12-18T22:45:22.431Z,101880.28
2022-12-18T22:47:49.624Z,101877.25
2022-12-18T22:50:17.224Z,101883.34
2022-12-18T22:52:46.437Z,101886.91
2022-12-18T22:55:14.227Z,101888.81
2022-12-18T22:57:48.597Z,101879.25
2022-12-18T23:00:20.765Z,101886.97
2022-12-18T23:03:00.371Z,101888.41
2022-12-18T23:05:29.898Z,101888.56
2022-12-18T23:07:57.442Z,101887.09
2022-12-18T23:10:25.237Z,101885.50
2022-12-18T23:12:52.604Z,101884.22
2022-12-18T23:15:24.860Z,101886.00
2022-12-18T23:17:57.026Z,101895.28
2022-12-18T23:20:25.240Z,101901.06
2022-12-18T23:22:53.473Z,101900.41
2022-12-18T23:25:20.918Z,101889.88
2022-12-18T23:27:48.449Z,101893.09
2022-12-18T23:30:16.240Z,101880.75
2022-12-18T23:32:43.802Z,101885.75
2022-12-18T23:35:11.451Z,101884.47
2022-12-18T23:37:58.553Z,101879.50
2022-12-18T23:40:27.659Z,101885.16
2022-12-18T23:42:55.803Z,101874.44
2022-12-18T23:45:23.483Z,101883.06
2022-12-18T23:47:51.408Z,101889.53
2022-12-18T23:50:19.484Z,101880.88
2022-12-18T23:52:53.253Z,101891.28
2022-12-18T23:55:20.670Z,101890.63
2022-12-18T23:57:48.186Z,101886.50
